createdAt,value
2018-02-15T00:00:23.002Z,3.50
2018-02-15T00:02:51.256Z,3.40
2018-02-15T00:05:18.876Z,3.50
2018-02-15T00:07:46.457Z,3.50
2018-02-15T00:10:14.807Z,3.50
2018-02-15T00:12:43.295Z,3.50
2018-02-15T00:15:10.897Z,3.50
2018-02-15T00:17:38.491Z,3.50
2018-02-15T00:20:06.089Z,3.50
2018-02-15T00:22:33.717Z,3.50
2018-02-15T00:25:01.332Z,3.50
2018-02-15T00:27:28.915Z,3.50
2018-02-15T00:29:57.253Z,3.60
2018-02-15T00:32:24.824Z,3.50
2018-02-15T00:34:52.417Z,3.50
2018-02-15T00:37:21.062Z,3.60
2018-02-15T00:39:48.706Z,3.60
2018-02-15T00:42:16.289Z,3.60
2018-02-15T00:44:43.898Z,3.60
2018-02-15T00:47:11.500Z,3.60
2018-02-15T00:49:39.064Z,3.60
2018-02-15T00:52:06.656Z,3.60
2018-02-15T00:54:34.270Z,3.60
2018-02-15T00:57:02.669Z,3.70
2018-02-15T00:59:30.249Z,3.60
2018-02-15T01:01:59.009Z,3.70
2018-02-15T01:04:26.569Z,3.60
2018-02-15T01:06:54.947Z,3.70
2018-02-15T01:09:23.307Z,3.70
2018-02-15T01:11:51.919Z,3.70
2018-02-15T01:14:20.470Z,3.70
2018-02-15T01:16:48.771Z,3.70
2018-02-15T01:19:16.372Z,3.70
2018-02-15T01:21:43.939Z,3.70
2018-02-15T01:24:12.284Z,3.80
2018-02-15T01:26:39.862Z,3.70
2018-02-15T01:29:08.218Z,3.80
2018-02-15T01:31:35.804Z,3.70
2018-02-15T01:34:03.381Z,3.70
2018-02-15T01:36:31.726Z,3.80
2018-02-15T01:38:59.322Z,3.80
2018-02-15T01:41:27.723Z,3.80
2018-02-15T01:43:56.103Z,3.80
2018-02-15T01:46:24.475Z,3.70
2018-02-15T01:48:52.823Z,3.80
2018-02-15T01:51:20.397Z,3.70
2018-02-15T01:53:47.993Z,3.80
2018-02-15T01:56:15.580Z,3.80
2018-02-15T01:58:43.188Z,3.80
2018-02-15T02:01:10.777Z,3.80
2018-02-15T02:03:39.173Z,3.70
2018-02-15T02:06:06.758Z,3.70
2018-02-15T02:08:35.212Z,3.70
2018-02-15T02:11:02.821Z,3.70
2018-02-15T02:13:30.418Z,3.60
2018-02-15T02:15:57.984Z,3.50
2018-02-15T02:18:29.160Z,3.40
2018-02-15T02:20:56.750Z,3.30
2018-02-15T02:23:24.336Z,3.20
2018-02-15T02:25:51.954Z,3.10
2018-02-15T02:28:20.321Z,2.90
2018-02-15T02:30:47.905Z,2.90
2018-02-15T02:33:16.421Z,2.70
2018-02-15T02:35:44.027Z,2.70
2018-02-15T02:38:11.640Z,2.70
2018-02-15T02:40:40.008Z,2.60
2018-02-15T02:43:08.371Z,2.50
2018-02-15T02:45:35.968Z,2.50
2018-02-15T02:48:03.562Z,2.50
2018-02-15T02:50:31.922Z,2.30
2018-02-15T02:52:59.508Z,2.30
2018-02-15T02:55:27.117Z,2.20
2018-02-15T02:57:54.700Z,2.20
2018-02-15T03:00:22.269Z,2.10
2018-02-15T03:02:51.616Z,2.00
2018-02-15T03:05:19.228Z,2.00
2018-02-15T03:07:46.809Z,1.90
2018-02-15T03:10:15.165Z,1.80
2018-02-15T03:12:42.769Z,1.80
2018-02-15T03:15:10.357Z,1.70
2018-02-15T03:17:37.977Z,1.70
2018-02-15T03:20:06.359Z,1.70
2018-02-15T03:22:33.953Z,1.60
2018-02-15T03:25:01.549Z,1.60
2018-02-15T03:27:29.150Z,1.60
2018-02-15T03:29:56.719Z,1.60
2018-02-15T03:32:24.312Z,1.60
2018-02-15T03:34:51.933Z,1.50
2018-02-15T03:37:19.524Z,1.50
2018-02-15T03:39:47.850Z,1.50
2018-02-15T03:42:16.064Z,1.50
2018-02-15T03:44:43.652Z,1.50
2018-02-15T03:47:12.680Z,1.50
2018-02-15T03:49:40.264Z,1.40
2018-02-15T03:52:07.846Z,1.40
2018-02-15T03:54:35.409Z,1.40
2018-02-15T03:57:02.981Z,1.40
2018-02-15T03:59:30.591Z,1.40
2018-02-15T04:01:58.197Z,1.40
2018-02-15T04:04:25.807Z,1.40
2018-02-15T04:06:54.181Z,1.40
2018-02-15T04:09:21.774Z,1.30
2018-02-15T04:11:49.377Z,1.30
2018-02-15T04:14:16.942Z,1.30
2018-02-15T04:16:44.536Z,1.30
2018-02-15T04:19:12.136Z,1.30
2018-02-15T04:21:39.750Z,1.30
2018-02-15T04:24:07.364Z,1.20
2018-02-15T04:26:34.952Z,1.30
2018-02-15T04:29:02.534Z,1.30
2018-02-15T04:31:30.128Z,1.30
2018-02-15T04:33:57.761Z,1.30
2018-02-15T04:36:25.351Z,1.30
2018-02-15T04:38:52.983Z,1.30
2018-02-15T04:41:20.627Z,1.30
2018-02-15T04:43:48.291Z,1.30
2018-02-15T04:46:15.899Z,1.30
2018-02-15T04:48:43.481Z,1.30
2018-02-15T04:51:11.119Z,1.30
2018-02-15T04:53:38.752Z,1.30
2018-02-15T04:56:06.332Z,1.30
2018-02-15T04:58:34.004Z,1.40
2018-02-15T05:01:01.604Z,1.30
2018-02-15T05:03:29.247Z,1.30
2018-02-15T05:05:56.823Z,1.30
2018-02-15T05:08:24.382Z,1.30
2018-02-15T05:10:51.948Z,1.30
2018-02-15T05:13:19.610Z,1.30
2018-02-15T05:15:47.970Z,1.40
2018-02-15T05:18:17.341Z,1.30
2018-02-15T05:20:45.683Z,1.40
2018-02-15T05:23:13.288Z,1.40
2018-02-15T05:25:41.646Z,1.40
2018-02-15T05:28:09.257Z,1.40
2018-02-15T05:30:36.843Z,1.40
2018-02-15T05:33:04.429Z,1.40
2018-02-15T05:35:32.073Z,1.40
2018-02-15T05:37:59.677Z,1.50
2018-02-15T05:40:27.259Z,1.40
2018-02-15T05:42:54.852Z,1.50
2018-02-15T05:45:22.436Z,1.50
2018-02-15T05:47:50.910Z,1.50
2018-02-15T05:50:18.514Z,1.50
2018-02-15T05:52:46.581Z,1.50
2018-02-15T05:55:14.153Z,1.50
2018-02-15T05:57:41.760Z,1.50
2018-02-15T06:00:10.146Z,1.60
2018-02-15T06:02:38.477Z,1.50
2018-02-15T06:05:06.052Z,1.50
2018-02-15T06:07:33.666Z,1.50
2018-02-15T06:10:02.036Z,1.50
2018-02-15T06:12:31.250Z,1.50
2018-02-15T06:14:58.874Z,1.50
2018-02-15T06:17:27.716Z,1.50
2018-02-15T06:19:55.362Z,1.50
2018-02-15T06:22:23.736Z,1.50
2018-02-15T06:24:52.123Z,1.60
2018-02-15T06:27:19.759Z,1.60
2018-02-15T06:29:47.365Z,1.60
2018-02-15T06:32:14.995Z,1.60
2018-02-15T06:34:42.620Z,1.60
2018-02-15T06:37:10.285Z,1.60
2018-02-15T06:39:38.625Z,1.60
2018-02-15T06:42:06.250Z,1.60
2018-02-15T06:44:33.875Z,1.60
2018-02-15T06:47:02.281Z,1.60
2018-02-15T06:49:29.910Z,1.60
2018-02-15T06:51:57.526Z,1.60
2018-02-15T06:54:25.126Z,1.60
2018-02-15T06:56:52.744Z,1.60
2018-02-15T06:59:20.346Z,1.60
2018-02-15T07:01:47.962Z,1.60
2018-02-15T07:04:16.361Z,1.60
2018-02-15T07:06:43.992Z,1.60
2018-02-15T07:09:11.614Z,1.60
2018-02-15T07:11:40.067Z,1.60
2018-02-15T07:14:07.769Z,1.60
2018-02-15T07:16:35.391Z,1.60
2018-02-15T07:19:03.809Z,1.60
2018-02-15T07:21:31.464Z,1.70
2018-02-15T07:23:59.065Z,1.70
2018-02-15T07:26:26.673Z,1.70
2018-02-15T07:28:55.071Z,1.70
2018-02-15T07:31:23.116Z,1.70
2018-02-15T07:33:50.773Z,1.70
2018-02-15T07:36:18.376Z,1.70
2018-02-15T07:38:45.997Z,1.70
2018-02-15T07:41:13.601Z,1.70
2018-02-15T07:43:41.220Z,1.70
2018-02-15T07:46:08.838Z,1.70
2018-02-15T07:48:36.471Z,1.80
2018-02-15T07:51:04.889Z,1.80
2018-02-15T07:53:32.571Z,1.80
2018-02-15T07:56:00.249Z,1.80
2018-02-15T07:58:27.870Z,1.80
2018-02-15T08:00:57.855Z,1.80
2018-02-15T08:03:25.471Z,1.80
2018-02-15T08:05:53.126Z,1.80
2018-02-15T08:08:21.545Z,1.80
2018-02-15T08:10:49.205Z,1.80
2018-02-15T08:13:16.835Z,1.90
2018-02-15T08:15:45.214Z,2.00
2018-02-15T08:18:12.816Z,2.00
2018-02-15T08:20:41.713Z,2.00
2018-02-15T08:23:09.350Z,2.00
2018-02-15T08:25:37.723Z,2.00
2018-02-15T08:28:05.778Z,2.00
2018-02-15T08:30:33.455Z,2.00
2018-02-15T08:33:01.083Z,2.00
2018-02-15T08:35:29.458Z,2.10
2018-02-15T08:37:57.119Z,2.10
2018-02-15T08:40:24.711Z,2.10
2018-02-15T08:42:52.343Z,2.20
2018-02-15T08:45:20.000Z,2.20
2018-02-15T08:47:47.647Z,2.20
2018-02-15T08:50:16.027Z,2.30
2018-02-15T08:52:43.664Z,2.20
2018-02-15T08:55:11.294Z,2.30
2018-02-15T08:57:38.944Z,2.30
2018-02-15T09:00:06.582Z,2.30
2018-02-15T09:02:34.218Z,2.40
2018-02-15T09:05:01.830Z,2.40
2018-02-15T09:07:30.238Z,2.50
2018-02-15T09:09:57.858Z,2.40
2018-02-15T09:12:25.479Z,2.50
2018-02-15T09:14:53.238Z,2.60
2018-02-15T09:17:20.883Z,2.50
2018-02-15T09:19:49.273Z,2.60
2018-02-15T09:22:17.685Z,2.60
2018-02-15T09:24:45.314Z,2.60
2018-02-15T09:27:13.009Z,2.70
2018-02-15T09:29:40.648Z,2.70
2018-02-15T09:32:09.053Z,2.70
2018-02-15T09:34:36.725Z,2.70
2018-02-15T09:37:04.328Z,2.70
2018-02-15T09:39:31.956Z,2.70
2018-02-15T09:41:59.604Z,2.80
2018-02-15T09:44:27.232Z,2.80
2018-02-15T09:46:54.846Z,2.80
2018-02-15T09:49:22.574Z,2.80
2018-02-15T09:51:50.207Z,2.80
2018-02-15T09:54:17.830Z,2.90
2018-02-15T09:56:46.210Z,2.90
2018-02-15T09:59:14.641Z,3.00
2018-02-15T10:01:42.312Z,3.00
2018-02-15T10:04:09.927Z,3.00
2018-02-15T10:06:37.545Z,3.00
2018-02-15T10:09:05.179Z,3.00
2018-02-15T10:11:32.811Z,3.00
2018-02-15T10:14:00.437Z,3.10
2018-02-15T10:16:28.104Z,3.10
2018-02-15T10:18:55.712Z,3.10
2018-02-15T10:21:23.364Z,3.10
2018-02-15T10:23:50.980Z,3.10
2018-02-15T10:26:18.600Z,3.10
2018-02-15T10:28:46.219Z,3.10
2018-02-15T10:31:13.922Z,3.20
2018-02-15T10:33:41.592Z,3.20
2018-02-15T10:36:09.246Z,3.20
2018-02-15T10:38:36.848Z,3.20
2018-02-15T10:41:04.489Z,3.20
2018-02-15T10:43:32.141Z,3.30
2018-02-15T10:45:59.757Z,3.30
2018-02-15T10:48:27.365Z,3.30
2018-02-15T10:50:55.011Z,3.30
2018-02-15T10:53:22.619Z,3.30
2018-02-15T10:55:50.260Z,3.40
2018-02-15T10:58:17.881Z,3.40
2018-02-15T11:00:51.860Z,3.40
2018-02-15T11:03:36.296Z,3.40
2018-02-15T11:06:03.928Z,3.50
2018-02-15T11:08:31.546Z,3.50
2018-02-15T11:10:59.196Z,3.50
2018-02-15T11:13:26.796Z,3.50
2018-02-15T11:15:55.630Z,3.60
2018-02-15T11:18:23.274Z,3.50
2018-02-15T11:20:50.905Z,3.60
2018-02-15T11:23:18.745Z,3.60
2018-02-15T11:25:46.391Z,3.60
2018-02-15T11:28:14.031Z,3.70
2018-02-15T11:30:41.655Z,3.70
2018-02-15T11:33:09.327Z,3.80
2018-02-15T11:35:37.035Z,3.80
2018-02-15T11:38:05.421Z,3.90
2018-02-15T11:40:34.039Z,3.90
2018-02-15T11:43:01.728Z,3.90
2018-02-15T11:45:29.334Z,4.00
2018-02-15T11:47:56.941Z,4.00
2018-02-15T11:50:24.562Z,4.10
2018-02-15T11:52:52.213Z,4.10
2018-02-15T11:55:19.827Z,4.20
2018-02-15T11:57:48.426Z,4.30
2018-02-15T12:00:16.028Z,4.30
2018-02-15T12:02:43.648Z,4.40
2018-02-15T12:05:11.275Z,4.40
2018-02-15T12:07:38.892Z,4.50
2018-02-15T12:10:06.534Z,4.50
2018-02-15T12:12:34.181Z,4.50
2018-02-15T12:15:01.817Z,4.60
2018-02-15T12:17:29.449Z,4.60
2018-02-15T12:19:57.055Z,4.60
2018-02-15T12:22:24.700Z,4.70
2018-02-15T12:24:52.311Z,4.70
2018-02-15T12:27:19.919Z,4.70
2018-02-15T12:29:47.557Z,4.70
2018-02-15T12:32:15.161Z,4.80
2018-02-15T12:34:42.751Z,4.90
2018-02-15T12:37:10.390Z,5.00
2018-02-15T12:39:37.994Z,5.00
2018-02-15T12:42:05.594Z,5.10
2018-02-15T12:44:33.200Z,5.10
2018-02-15T12:47:00.814Z,5.10
2018-02-15T12:49:29.207Z,5.30
2018-02-15T12:51:56.849Z,5.20
2018-02-15T12:54:24.483Z,5.30
2018-02-15T12:56:52.118Z,5.40
2018-02-15T12:59:19.737Z,5.40
2018-02-15T13:01:47.345Z,5.50
2018-02-15T13:04:14.967Z,5.50
2018-02-15T13:06:42.571Z,5.60
2018-02-15T13:09:10.176Z,5.60
2018-02-15T13:11:37.797Z,5.70
2018-02-15T13:14:05.431Z,5.70
2018-02-15T13:16:44.921Z,5.70
2018-02-15T13:19:25.201Z,5.80
2018-02-15T13:21:52.812Z,5.80
2018-02-15T13:24:21.204Z,5.90
2018-02-15T13:26:49.584Z,6.00
2018-02-15T13:29:17.974Z,6.00
2018-02-15T13:31:46.370Z,6.10
2018-02-15T13:34:13.978Z,6.10
2018-02-15T13:36:41.619Z,6.20
2018-02-15T13:39:09.696Z,6.20
2018-02-15T13:41:37.338Z,6.30
2018-02-15T13:44:04.983Z,6.30
2018-02-15T13:46:33.360Z,6.50
2018-02-15T13:49:01.746Z,6.50
2018-02-15T13:51:29.386Z,6.50
2018-02-15T13:53:57.005Z,6.60
2018-02-15T13:56:24.611Z,6.60
2018-02-15T13:58:52.238Z,6.70
2018-02-15T14:01:19.884Z,6.70
2018-02-15T14:03:47.510Z,6.80
2018-02-15T14:06:15.144Z,6.80
2018-02-15T14:08:42.754Z,6.90
2018-02-15T14:11:10.458Z,7.00
2018-02-15T14:13:38.070Z,7.00
2018-02-15T14:16:05.686Z,7.20
2018-02-15T14:18:33.291Z,7.40
2018-02-15T14:21:00.911Z,7.40
2018-02-15T14:23:28.562Z,7.50
2018-02-15T14:25:56.209Z,7.60
2018-02-15T14:28:23.836Z,7.60
2018-02-15T14:30:51.447Z,7.70
2018-02-15T14:33:19.072Z,7.70
2018-02-15T14:35:46.686Z,7.80
2018-02-15T14:38:14.298Z,7.80
2018-02-15T14:40:41.910Z,7.90
2018-02-15T14:43:09.512Z,7.80
2018-02-15T14:45:37.144Z,7.90
2018-02-15T14:48:04.802Z,7.90
2018-02-15T14:50:32.423Z,8.00
2018-02-15T14:53:00.052Z,8.10
2018-02-15T14:55:27.686Z,8.10
2018-02-15T14:57:55.396Z,8.20
2018-02-15T15:00:23.781Z,8.20
2018-02-15T15:02:52.177Z,8.30
2018-02-15T15:05:20.596Z,8.30
2018-02-15T15:07:48.213Z,8.30
2018-02-15T15:10:16.627Z,8.50
2018-02-15T15:12:44.229Z,8.40
2018-02-15T15:15:11.831Z,8.50
2018-02-15T15:17:40.259Z,8.60
2018-02-15T15:20:07.870Z,8.50
2018-02-15T15:22:35.502Z,8.60
2018-02-15T15:25:03.878Z,8.60
2018-02-15T15:27:31.547Z,8.60
2018-02-15T15:29:59.152Z,8.60
2018-02-15T15:32:26.796Z,8.60
2018-02-15T15:34:54.412Z,8.60
2018-02-15T15:37:22.032Z,8.60
2018-02-15T15:39:49.688Z,8.60
2018-02-15T15:42:17.313Z,8.60
2018-02-15T15:44:44.938Z,8.50
2018-02-15T15:47:12.568Z,8.40
2018-02-15T15:49:40.226Z,8.40
2018-02-15T15:52:07.887Z,8.40
2018-02-15T15:54:35.565Z,8.40
2018-02-15T15:57:03.183Z,8.40
2018-02-15T15:59:30.783Z,8.40
2018-02-15T16:01:58.416Z,8.40
2018-02-15T16:04:26.098Z,8.40
2018-02-15T16:06:54.465Z,8.40
2018-02-15T16:09:22.878Z,8.40
2018-02-15T16:11:50.519Z,8.40
2018-02-15T16:14:18.901Z,8.30
2018-02-15T16:16:47.314Z,8.30
2018-02-15T16:19:15.346Z,8.30
2018-02-15T16:21:43.018Z,8.30
2018-02-15T16:24:10.653Z,8.30
2018-02-15T16:26:38.266Z,8.20
2018-02-15T16:29:06.687Z,8.30
2018-02-15T16:31:35.086Z,8.30
2018-02-15T16:34:02.713Z,8.30
2018-02-15T16:36:30.409Z,8.20
2018-02-15T16:38:58.043Z,8.20
2018-02-15T16:41:26.988Z,8.00
2018-02-15T16:43:54.639Z,8.00
2018-02-15T16:46:22.279Z,8.00
2018-02-15T16:48:50.803Z,7.90
2018-02-15T16:51:18.429Z,7.80
2018-02-15T16:53:46.071Z,7.70
2018-02-15T16:56:13.691Z,7.70
2018-02-15T16:58:41.328Z,7.60
2018-02-15T17:01:09.008Z,7.50
2018-02-15T17:03:36.624Z,7.40
2018-02-15T17:06:04.250Z,7.30
2018-02-15T17:08:32.326Z,7.30
2018-02-15T17:10:59.948Z,7.20
2018-02-15T17:13:27.562Z,7.10
2018-02-15T17:15:55.173Z,7.10
2018-02-15T17:18:22.796Z,7.00
2018-02-15T17:20:51.243Z,6.80
2018-02-15T17:23:19.669Z,6.80
2018-02-15T17:25:47.293Z,6.80
2018-02-15T17:28:14.918Z,6.70
2018-02-15T17:30:42.557Z,6.70
2018-02-15T17:33:10.227Z,6.70
2018-02-15T17:35:37.839Z,6.60
2018-02-15T17:38:06.203Z,6.50
2018-02-15T17:40:33.822Z,6.50
2018-02-15T17:43:01.450Z,6.50
2018-02-15T17:45:29.072Z,6.40
2018-02-15T17:47:56.740Z,6.40
2018-02-15T17:50:24.346Z,6.30
2018-02-15T17:52:51.964Z,6.20
2018-02-15T17:55:20.864Z,6.20
2018-02-15T17:57:48.476Z,6.00
2018-02-15T18:00:16.140Z,6.00
2018-02-15T18:02:43.759Z,5.90
2018-02-15T18:05:11.382Z,5.80
2018-02-15T18:07:39.017Z,5.60
2018-02-15T18:10:06.641Z,5.50
2018-02-15T18:12:34.277Z,5.40
2018-02-15T18:15:02.662Z,5.10
2018-02-15T18:17:31.058Z,5.00
2018-02-15T18:19:58.719Z,5.00
2018-02-15T18:22:27.097Z,4.80
2018-02-15T18:24:55.468Z,4.80
2018-02-15T18:27:23.077Z,4.70
2018-02-15T18:29:50.731Z,4.70
2018-02-15T18:32:18.355Z,4.50
2018-02-15T18:34:45.956Z,4.40
2018-02-15T18:37:13.570Z,4.30
2018-02-15T18:39:41.206Z,4.30
2018-02-15T18:42:08.822Z,4.20
2018-02-15T18:44:36.556Z,4.10
2018-02-15T18:47:04.218Z,4.10
2018-02-15T18:49:31.864Z,4.00
2018-02-15T18:51:59.478Z,3.90
2018-02-15T18:54:27.714Z,3.80
2018-02-15T18:56:56.201Z,3.80
2018-02-15T18:59:23.841Z,3.80
2018-02-15T19:01:52.319Z,3.60
2018-02-15T19:04:19.958Z,3.60
2018-02-15T19:06:47.589Z,3.60
2018-02-15T19:09:15.236Z,3.50
2018-02-15T19:11:43.637Z,3.40
2018-02-15T19:14:11.248Z,3.40
2018-02-15T19:16:38.881Z,3.40
2018-02-15T19:19:06.512Z,3.40
2018-02-15T19:21:34.886Z,3.30
2018-02-15T19:24:02.512Z,3.30
2018-02-15T19:26:30.120Z,3.20
2018-02-15T19:28:57.730Z,3.20
2018-02-15T19:31:25.396Z,3.10
2018-02-15T19:33:53.014Z,3.10
2018-02-15T19:36:20.622Z,3.10
2018-02-15T19:38:48.269Z,3.10
2018-02-15T19:41:15.899Z,3.10
2018-02-15T19:43:43.557Z,3.10
2018-02-15T19:46:11.197Z,3.10
2018-02-15T19:48:38.816Z,3.10
2018-02-15T19:51:07.188Z,3.20
2018-02-15T19:53:34.810Z,3.10
2018-02-15T19:56:02.464Z,3.20
2018-02-15T19:58:30.066Z,3.10
2018-02-15T20:00:57.753Z,3.20
2018-02-15T20:03:25.370Z,3.10
2018-02-15T20:05:53.794Z,3.00
2018-02-15T20:08:21.434Z,3.00
2018-02-15T20:10:49.074Z,3.00
2018-02-15T20:13:16.690Z,2.90
2018-02-15T20:15:47.247Z,2.90
2018-02-15T20:18:14.900Z,2.80
2018-02-15T20:20:42.660Z,2.80
2018-02-15T20:23:11.207Z,2.70
2018-02-15T20:25:38.867Z,2.60
2018-02-15T20:28:12.155Z,2.60
2018-02-15T20:30:39.795Z,2.60
2018-02-15T20:33:08.225Z,2.50
2018-02-15T20:35:35.942Z,2.50
2018-02-15T20:38:09.241Z,2.40
2018-02-15T20:40:40.326Z,2.30
2018-02-15T20:43:07.914Z,2.30
2018-02-15T20:45:36.432Z,2.30
2018-02-15T20:48:04.828Z,2.20
2018-02-15T20:50:38.854Z,2.10
2018-02-15T20:53:12.285Z,2.10
2018-02-15T20:55:46.982Z,2.10
2018-02-15T20:58:14.601Z,2.10
2018-02-15T21:00:42.203Z,2.00
2018-02-15T21:03:10.582Z,1.90
2018-02-15T21:05:39.041Z,1.90
2018-02-15T21:08:06.662Z,1.90
2018-02-15T21:10:34.277Z,1.90
2018-02-15T21:13:01.903Z,1.90
2018-02-15T21:15:29.501Z,1.80
2018-02-15T21:17:57.111Z,1.80
2018-02-15T21:20:24.742Z,1.80
2018-02-15T21:22:52.361Z,1.80
2018-02-15T21:25:19.983Z,1.80
2018-02-15T21:27:48.399Z,1.70
2018-02-15T21:30:15.989Z,1.70
2018-02-15T21:32:44.364Z,1.70
2018-02-15T21:35:12.000Z,1.60
2018-02-15T21:37:41.128Z,1.60
2018-02-15T21:40:08.779Z,1.60
2018-02-15T21:42:36.394Z,1.60
2018-02-15T21:45:04.021Z,1.60
2018-02-15T21:47:31.631Z,1.60
2018-02-15T21:49:59.269Z,1.60
2018-02-15T21:52:26.905Z,1.50
2018-02-15T21:54:54.529Z,1.50
2018-02-15T21:57:22.151Z,1.50
2018-02-15T21:59:49.759Z,1.40
2018-02-15T22:02:17.379Z,1.40
2018-02-15T22:04:44.985Z,1.40
2018-02-15T22:07:12.604Z,1.40
2018-02-15T22:09:40.191Z,1.40
2018-02-15T22:12:07.808Z,1.40
2018-02-15T22:14:36.200Z,1.30
2018-02-15T22:17:04.538Z,1.30
2018-02-15T22:19:32.176Z,1.30
2018-02-15T22:21:59.739Z,1.30
2018-02-15T22:24:27.345Z,1.30
2018-02-15T22:26:54.921Z,1.30
2018-02-15T22:29:22.484Z,1.20
2018-02-15T22:31:50.082Z,1.20
2018-02-15T22:34:17.649Z,1.30
2018-02-15T22:36:45.230Z,1.20
2018-02-15T22:39:13.684Z,1.20
2018-02-15T22:41:42.018Z,1.20
2018-02-15T22:44:09.600Z,1.20
2018-02-15T22:46:37.202Z,1.20
2018-02-15T22:49:05.562Z,1.10
2018-02-15T22:51:33.157Z,1.10
2018-02-15T22:54:00.720Z,1.20
2018-02-15T22:56:28.304Z,1.20
2018-02-15T22:58:55.871Z,1.10
2018-02-15T23:01:24.216Z,1.10
2018-02-15T23:03:52.545Z,1.00
2018-02-15T23:06:20.109Z,1.00
2018-02-15T23:08:47.683Z,1.10
2018-02-15T23:11:15.261Z,1.10
2018-02-15T23:13:42.832Z,1.00
2018-02-15T23:16:10.438Z,1.10
2018-02-15T23:18:38.012Z,1.00
2018-02-15T23:21:05.598Z,1.00
2018-02-15T23:23:33.267Z,1.00
2018-02-15T23:26:00.844Z,1.00
2018-02-15T23:28:28.408Z,0.90
2018-02-15T23:30:56.059Z,0.90
2018-02-15T23:33:23.650Z,0.90
2018-02-15T23:35:51.247Z,0.90
2018-02-15T23:38:19.579Z,0.80
2018-02-15T23:40:47.921Z,0.70
2018-02-15T23:43:15.533Z,0.70
2018-02-15T23:45:43.109Z,0.70
2018-02-15T23:48:10.701Z,0.70
2018-02-15T23:50:39.060Z,0.70
2018-02-15T23:53:06.637Z,0.70
2018-02-15T23:55:34.216Z,0.70
2018-02-15T23:58:02.550Z,0.70
